sensor_id;sensor_type;location;lat;lon;timestamp;temperature;humidity
18163;DHT22;9206;50.994;4.538;2022-09-21T00:02:38;7.20;99.90
18163;DHT22;9206;50.994;4.538;2022-09-21T00:05:32;7.20;99.90
18163;DHT22;9206;50.994;4.538;2022-09-21T00:08:21;7.20;99.90
18163;DHT22;9206;50.994;4.538;2022-09-21T00:11:11;7.20;99.90
18163;DHT22;9206;50.994;4.538;2022-09-21T00:14:01;7.20;99.90
18163;DHT22;9206;50.994;4.538;2022-09-21T00:16:50;7.20;99.90
18163;DHT22;9206;50.994;4.538;2022-09-21T00:19:37;7.10;99.90
18163;DHT22;9206;50.994;4.538;2022-09-21T00:22:27;7.10;99.90
18163;DHT22;9206;50.994;4.538;2022-09-21T00:25:20;7.00;99.90
18163;DHT22;9206;50.994;4.538;2022-09-21T00:28:15;7.00;99.90
18163;DHT22;9206;50.994;4.538;2022-09-21T00:31:20;7.00;99.90
18163;DHT22;9206;50.994;4.538;2022-09-21T00:34:08;6.90;99.90
18163;DHT22;9206;50.994;4.538;2022-09-21T00:36:58;6.90;99.90
18163;DHT22;9206;50.994;4.538;2022-09-21T00:39:48;6.90;99.90
18163;DHT22;9206;50.994;4.538;2022-09-21T00:42:38;6.90;99.90
18163;DHT22;9206;50.994;4.538;2022-09-21T00:45:31;6.80;99.90
18163;DHT22;9206;50.994;4.538;2022-09-21T00:48:19;6.80;99.90
18163;DHT22;9206;50.994;4.538;2022-09-21T00:51:09;6.80;99.90
18163;DHT22;9206;50.994;4.538;2022-09-21T00:54:00;6.80;99.90
18163;DHT22;9206;50.994;4.538;2022-09-21T00:56:53;6.80;99.90
18163;DHT22;9206;50.994;4.538;2022-09-21T00:59:49;6.70;99.90
18163;DHT22;9206;50.994;4.538;2022-09-21T01:02:38;6.70;99.90
18163;DHT22;9206;50.994;4.538;2022-09-21T01:05:28;6.60;99.90
18163;DHT22;9206;50.994;4.538;2022-09-21T01:08:17;6.60;99.90
18163;DHT22;9206;50.994;4.538;2022-09-21T01:11:28;6.60;99.90
18163;DHT22;9206;50.994;4.538;2022-09-21T01:14:48;6.50;99.90
18163;DHT22;9206;50.994;4.538;2022-09-21T01:17:50;6.50;99.90
18163;DHT22;9206;50.994;4.538;2022-09-21T01:21:19;6.50;99.90
18163;DHT22;9206;50.994;4.538;2022-09-21T01:24:21;6.40;99.90
18163;DHT22;9206;50.994;4.538;2022-09-21T01:30:49;6.40;99.90
18163;DHT22;9206;50.994;4.538;2022-09-21T01:33:45;6.40;99.90
18163;DHT22;9206;50.994;4.538;2022-09-21T01:36:35;6.30;99.90
18163;DHT22;9206;50.994;4.538;2022-09-21T01:39:28;6.30;99.90
18163;DHT22;9206;50.994;4.538;2022-09-21T01:42:25;6.30;99.90
18163;DHT22;9206;50.994;4.538;2022-09-21T01:45:16;6.30;99.90
18163;DHT22;9206;50.994;4.538;2022-09-21T01:48:11;6.30;99.90
18163;DHT22;9206;50.994;4.538;2022-09-21T01:51:01;6.30;99.90
18163;DHT22;9206;50.994;4.538;2022-09-21T01:53:55;6.20;99.90
18163;DHT22;9206;50.994;4.538;2022-09-21T01:56:47;6.20;99.90
18163;DHT22;9206;50.994;4.538;2022-09-21T01:59:45;6.10;99.90
18163;DHT22;9206;50.994;4.538;2022-09-21T02:02:39;6.10;99.90
18163;DHT22;9206;50.994;4.538;2022-09-21T02:05:35;6.00;99.90
18163;DHT22;9206;50.994;4.538;2022-09-21T02:08:26;6.00;99.90
18163;DHT22;9206;50.994;4.538;2022-09-21T02:11:20;6.00;99.90
18163;DHT22;9206;50.994;4.538;2022-09-21T02:14:09;6.00;99.90
18163;DHT22;9206;50.994;4.538;2022-09-21T02:17:13;6.00;99.90
18163;DHT22;9206;50.994;4.538;2022-09-21T02:20:14;6.00;99.90
18163;DHT22;9206;50.994;4.538;2022-09-21T02:23:09;6.00;99.90
18163;DHT22;9206;50.994;4.538;2022-09-21T02:26:02;6.00;99.90
18163;DHT22;9206;50.994;4.538;2022-09-21T02:28:59;5.90;99.90
18163;DHT22;9206;50.994;4.538;2022-09-21T02:31:58;5.90;99.90
18163;DHT22;9206;50.994;4.538;2022-09-21T02:35:00;5.90;99.90
18163;DHT22;9206;50.994;4.538;2022-09-21T02:37:53;5.90;99.90
18163;DHT22;9206;50.994;4.538;2022-09-21T02:40:52;5.80;99.90
18163;DHT22;9206;50.994;4.538;2022-09-21T02:43:46;5.80;99.90
18163;DHT22;9206;50.994;4.538;2022-09-21T02:46:39;5.70;99.90
18163;DHT22;9206;50.994;4.538;2022-09-21T02:49:33;5.80;99.90
18163;DHT22;9206;50.994;4.538;2022-09-21T02:52:23;5.80;99.90
18163;DHT22;9206;50.994;4.538;2022-09-21T02:55:12;5.80;99.90
18163;DHT22;9206;50.994;4.538;2022-09-21T02:58:05;5.80;99.90
18163;DHT22;9206;50.994;4.538;2022-09-21T03:00:57;5.80;99.90
18163;DHT22;9206;50.994;4.538;2022-09-21T03:03:46;5.80;99.90
18163;DHT22;9206;50.994;4.538;2022-09-21T03:06:34;5.70;99.90
18163;DHT22;9206;50.994;4.538;2022-09-21T03:09:22;5.70;99.90
18163;DHT22;9206;50.994;4.538;2022-09-21T03:12:15;5.70;99.90
18163;DHT22;9206;50.994;4.538;2022-09-21T03:15:05;5.70;99.90
18163;DHT22;9206;50.994;4.538;2022-09-21T03:17:53;5.60;99.90
18163;DHT22;9206;50.994;4.538;2022-09-21T03:20:43;5.50;99.90
18163;DHT22;9206;50.994;4.538;2022-09-21T03:23:32;5.50;99.90
18163;DHT22;9206;50.994;4.538;2022-09-21T03:26:21;5.50;99.90
18163;DHT22;9206;50.994;4.538;2022-09-21T03:29:08;5.40;99.90
18163;DHT22;9206;50.994;4.538;2022-09-21T03:31:58;5.40;99.90
18163;DHT22;9206;50.994;4.538;2022-09-21T03:34:48;5.40;99.90
18163;DHT22;9206;50.994;4.538;2022-09-21T03:37:37;5.40;99.90
18163;DHT22;9206;50.994;4.538;2022-09-21T03:40:27;5.40;99.90
18163;DHT22;9206;50.994;4.538;2022-09-21T03:43:16;5.30;99.90
18163;DHT22;9206;50.994;4.538;2022-09-21T03:46:05;5.30;99.90
18163;DHT22;9206;50.994;4.538;2022-09-21T03:48:54;5.30;99.90
18163;DHT22;9206;50.994;4.538;2022-09-21T03:51:42;5.20;99.90
18163;DHT22;9206;50.994;4.538;2022-09-21T03:54:31;5.20;99.90
18163;DHT22;9206;50.994;4.538;2022-09-21T03:57:22;5.20;99.90
18163;DHT22;9206;50.994;4.538;2022-09-21T04:00:11;5.20;99.90
18163;DHT22;9206;50.994;4.538;2022-09-21T04:02:59;5.20;99.90
18163;DHT22;9206;50.994;4.538;2022-09-21T04:05:50;5.20;99.90
18163;DHT22;9206;50.994;4.538;2022-09-21T04:08:38;5.10;99.90
18163;DHT22;9206;50.994;4.538;2022-09-21T04:11:31;5.10;99.90
18163;DHT22;9206;50.994;4.538;2022-09-21T04:14:21;5.10;99.90
18163;DHT22;9206;50.994;4.538;2022-09-21T04:17:11;5.10;99.90
18163;DHT22;9206;50.994;4.538;2022-09-21T04:20:02;5.10;99.90
18163;DHT22;9206;50.994;4.538;2022-09-21T04:22:56;5.10;99.90
18163;DHT22;9206;50.994;4.538;2022-09-21T04:25:48;5.20;99.90
18163;DHT22;9206;50.994;4.538;2022-09-21T04:28:41;5.10;99.90
18163;DHT22;9206;50.994;4.538;2022-09-21T04:31:35;5.10;99.90
18163;DHT22;9206;50.994;4.538;2022-09-21T04:34:29;5.10;99.90
18163;DHT22;9206;50.994;4.538;2022-09-21T04:37:17;5.10;99.90
18163;DHT22;9206;50.994;4.538;2022-09-21T04:40:08;5.10;99.90
18163;DHT22;9206;50.994;4.538;2022-09-21T04:43:02;5.00;99.90
18163;DHT22;9206;50.994;4.538;2022-09-21T04:45:50;5.10;99.90
18163;DHT22;9206;50.994;4.538;2022-09-21T04:48:40;5.10;99.90
18163;DHT22;9206;50.994;4.538;2022-09-21T04:51:31;5.10;99.90
18163;DHT22;9206;50.994;4.538;2022-09-21T04:54:28;5.10;99.90
18163;DHT22;9206;50.994;4.538;2022-09-21T04:57:19;5.10;99.90
18163;DHT22;9206;50.994;4.538;2022-09-21T05:00:09;5.10;99.90
18163;DHT22;9206;50.994;4.538;2022-09-21T05:02:58;5.10;99.90
18163;DHT22;9206;50.994;4.538;2022-09-21T05:05:46;5.10;99.90
18163;DHT22;9206;50.994;4.538;2022-09-21T05:08:37;5.10;99.90
18163;DHT22;9206;50.994;4.538;2022-09-21T05:11:47;5.10;99.90
18163;DHT22;9206;50.994;4.538;2022-09-21T05:14:36;5.10;99.90
18163;DHT22;9206;50.994;4.538;2022-09-21T05:17:25;5.10;99.90
18163;DHT22;9206;50.994;4.538;2022-09-21T05:20:16;5.10;99.90
18163;DHT22;9206;50.994;4.538;2022-09-21T05:23:05;5.10;99.90
18163;DHT22;9206;50.994;4.538;2022-09-21T05:25:53;5.10;99.90
18163;DHT22;9206;50.994;4.538;2022-09-21T05:28:43;5.10;99.90
18163;DHT22;9206;50.994;4.538;2022-09-21T05:31:38;5.10;99.90
18163;DHT22;9206;50.994;4.538;2022-09-21T05:34:40;5.10;99.90
18163;DHT22;9206;50.994;4.538;2022-09-21T05:37:55;5.10;99.90
18163;DHT22;9206;50.994;4.538;2022-09-21T05:40:46;5.00;99.90
18163;DHT22;9206;50.994;4.538;2022-09-21T05:43:37;5.10;99.90
18163;DHT22;9206;50.994;4.538;2022-09-21T05:46:38;5.20;99.90
18163;DHT22;9206;50.994;4.538;2022-09-21T05:49:39;5.20;99.90
18163;DHT22;9206;50.994;4.538;2022-09-21T05:52:43;5.30;99.90
18163;DHT22;9206;50.994;4.538;2022-09-21T05:55:39;5.40;99.90
18163;DHT22;9206;50.994;4.538;2022-09-21T05:58:54;5.60;99.90
18163;DHT22;9206;50.994;4.538;2022-09-21T06:01:58;5.70;99.90
18163;DHT22;9206;50.994;4.538;2022-09-21T06:04:56;5.90;99.90
18163;DHT22;9206;50.994;4.538;2022-09-21T06:07:47;5.90;99.90
18163;DHT22;9206;50.994;4.538;2022-09-21T06:10:35;6.00;99.90
18163;DHT22;9206;50.994;4.538;2022-09-21T06:13:33;6.20;99.90
18163;DHT22;9206;50.994;4.538;2022-09-21T07:00:23;8.50;99.90
18163;DHT22;9206;50.994;4.538;2022-09-21T07:03:27;8.80;99.90
18163;DHT22;9206;50.994;4.538;2022-09-21T07:11:36;9.40;99.90
18163;DHT22;9206;50.994;4.538;2022-09-21T07:14:59;9.90;99.90
18163;DHT22;9206;50.994;4.538;2022-09-21T07:18:10;10.20;99.90
18163;DHT22;9206;50.994;4.538;2022-09-21T07:21:03;10.40;99.90
18163;DHT22;9206;50.994;4.538;2022-09-21T07:23:59;10.60;99.90
18163;DHT22;9206;50.994;4.538;2022-09-21T07:30:15;10.80;99.90
18163;DHT22;9206;50.994;4.538;2022-09-21T07:38:32;10.80;99.90
18163;DHT22;9206;50.994;4.538;2022-09-21T07:40:49;10.70;99.90
18163;DHT22;9206;50.994;4.538;2022-09-21T07:44:19;10.60;99.90
18163;DHT22;9206;50.994;4.538;2022-09-21T07:47:31;10.60;99.90
18163;DHT22;9206;50.994;4.538;2022-09-21T07:50:39;10.60;99.90
18163;DHT22;9206;50.994;4.538;2022-09-21T07:53:32;10.70;99.90
18163;DHT22;9206;50.994;4.538;2022-09-21T07:56:30;10.70;99.90
18163;DHT22;9206;50.994;4.538;2022-09-21T07:59:21;10.80;99.90
18163;DHT22;9206;50.994;4.538;2022-09-21T08:02:12;11.00;99.90
18163;DHT22;9206;50.994;4.538;2022-09-21T08:05:06;11.20;99.90
18163;DHT22;9206;50.994;4.538;2022-09-21T08:08:00;11.60;99.90
18163;DHT22;9206;50.994;4.538;2022-09-21T08:11:08;12.40;99.90
18163;DHT22;9206;50.994;4.538;2022-09-21T08:14:37;14.10;99.90
18163;DHT22;9206;50.994;4.538;2022-09-21T08:21:39;19.50;99.90
18163;DHT22;9206;50.994;4.538;2022-09-21T08:24:42;21.90;99.90
18163;DHT22;9206;50.994;4.538;2022-09-21T08:27:49;23.50;99.90
18163;DHT22;9206;50.994;4.538;2022-09-21T08:38:47;26.10;99.90
18163;DHT22;9206;50.994;4.538;2022-09-21T08:42:23;26.50;99.90
18163;DHT22;9206;50.994;4.538;2022-09-21T08:46:35;26.70;99.90
18163;DHT22;9206;50.994;4.538;2022-09-21T08:49:50;27.30;99.90
18163;DHT22;9206;50.994;4.538;2022-09-21T08:56:14;28.70;99.90
18163;DHT22;9206;50.994;4.538;2022-09-21T09:12:55;30.00;99.90
18163;DHT22;9206;50.994;4.538;2022-09-21T10:10:40;31.40;97.50
18163;DHT22;9206;50.994;4.538;2022-09-21T10:14:43;30.70;99.20
18163;DHT22;9206;50.994;4.538;2022-09-21T10:18:13;31.90;96.20
18163;DHT22;9206;50.994;4.538;2022-09-21T10:21:36;29.90;95.20
18163;DHT22;9206;50.994;4.538;2022-09-21T10:24:52;27.30;96.50
18163;DHT22;9206;50.994;4.538;2022-09-21T10:32:00;27.30;99.90
18163;DHT22;9206;50.994;4.538;2022-09-21T10:46:34;33.40;96.60
18163;DHT22;9206;50.994;4.538;2022-09-21T10:50:03;34.10;92.00
18163;DHT22;9206;50.994;4.538;2022-09-21T10:53:23;33.70;93.10
18163;DHT22;9206;50.994;4.538;2022-09-21T10:56:19;34.50;92.40
18163;DHT22;9206;50.994;4.538;2022-09-21T10:59:16;33.70;90.70
18163;DHT22;9206;50.994;4.538;2022-09-21T11:05:14;32.70;91.20
18163;DHT22;9206;50.994;4.538;2022-09-21T11:08:14;34.40;90.20
18163;DHT22;9206;50.994;4.538;2022-09-21T11:11:23;34.70;90.60
18163;DHT22;9206;50.994;4.538;2022-09-21T11:14:43;34.40;86.20
18163;DHT22;9206;50.994;4.538;2022-09-21T11:22:07;33.60;83.80
18163;DHT22;9206;50.994;4.538;2022-09-21T11:25:47;34.10;81.50
18163;DHT22;9206;50.994;4.538;2022-09-21T11:28:59;32.10;78.60
18163;DHT22;9206;50.994;4.538;2022-09-21T11:39:41;34.30;84.40
18163;DHT22;9206;50.994;4.538;2022-09-21T11:42:59;33.80;83.30
18163;DHT22;9206;50.994;4.538;2022-09-21T11:46:19;33.50;85.90
18163;DHT22;9206;50.994;4.538;2022-09-21T11:49:56;33.10;86.00
18163;DHT22;9206;50.994;4.538;2022-09-21T11:53:03;31.40;86.00
18163;DHT22;9206;50.994;4.538;2022-09-21T11:59:59;31.70;90.10
18163;DHT22;9206;50.994;4.538;2022-09-21T12:08:03;32.90;84.90
18163;DHT22;9206;50.994;4.538;2022-09-21T12:11:29;32.90;86.20
18163;DHT22;9206;50.994;4.538;2022-09-21T12:14:30;31.70;88.10
18163;DHT22;9206;50.994;4.538;2022-09-21T12:17:29;31.20;90.10
18163;DHT22;9206;50.994;4.538;2022-09-21T12:20:24;32.00;90.70
18163;DHT22;9206;50.994;4.538;2022-09-21T12:23:30;32.90;89.20
18163;DHT22;9206;50.994;4.538;2022-09-21T12:26:49;33.30;86.90
18163;DHT22;9206;50.994;4.538;2022-09-21T12:30:03;33.60;84.90
18163;DHT22;9206;50.994;4.538;2022-09-21T12:33:46;33.80;82.30
18163;DHT22;9206;50.994;4.538;2022-09-21T12:37:07;33.40;84.40
18163;DHT22;9206;50.994;4.538;2022-09-21T12:40:31;33.00;87.60
18163;DHT22;9206;50.994;4.538;2022-09-21T12:47:07;32.60;88.70
18163;DHT22;9206;50.994;4.538;2022-09-21T12:50:29;31.70;88.20
18163;DHT22;9206;50.994;4.538;2022-09-21T12:53:39;29.80;84.20
18163;DHT22;9206;50.994;4.538;2022-09-21T12:56:40;27.80;86.20
18163;DHT22;9206;50.994;4.538;2022-09-21T12:59:42;26.20;90.60
18163;DHT22;9206;50.994;4.538;2022-09-21T13:03:08;25.30;91.70
18163;DHT22;9206;50.994;4.538;2022-09-21T13:06:33;25.20;91.00
18163;DHT22;9206;50.994;4.538;2022-09-21T13:09:53;25.20;92.30
18163;DHT22;9206;50.994;4.538;2022-09-21T13:13:22;25.40;93.00
18163;DHT22;9206;50.994;4.538;2022-09-21T13:16:26;25.50;92.70
18163;DHT22;9206;50.994;4.538;2022-09-21T13:20:14;25.80;92.40
18163;DHT22;9206;50.994;4.538;2022-09-21T13:29:38;26.60;90.40
18163;DHT22;9206;50.994;4.538;2022-09-21T13:36:35;26.30;94.00
18163;DHT22;9206;50.994;4.538;2022-09-21T13:43:16;26.10;92.50
18163;DHT22;9206;50.994;4.538;2022-09-21T13:46:06;26.10;92.60
18163;DHT22;9206;50.994;4.538;2022-09-21T13:49:12;25.40;91.60
18163;DHT22;9206;50.994;4.538;2022-09-21T13:52:05;24.60;91.10
18163;DHT22;9206;50.994;4.538;2022-09-21T13:54:59;24.20;91.80
18163;DHT22;9206;50.994;4.538;2022-09-21T13:57:52;23.90;91.80
18163;DHT22;9206;50.994;4.538;2022-09-21T14:00:50;23.00;92.10
18163;DHT22;9206;50.994;4.538;2022-09-21T14:03:41;22.80;94.00
18163;DHT22;9206;50.994;4.538;2022-09-21T14:06:42;23.00;93.80
18163;DHT22;9206;50.994;4.538;2022-09-21T14:09:42;23.30;95.00
18163;DHT22;9206;50.994;4.538;2022-09-21T14:12:40;23.30;94.20
18163;DHT22;9206;50.994;4.538;2022-09-21T14:15:34;23.30;93.80
18163;DHT22;9206;50.994;4.538;2022-09-21T14:18:42;23.40;94.70
18163;DHT22;9206;50.994;4.538;2022-09-21T14:21:32;23.50;94.90
18163;DHT22;9206;50.994;4.538;2022-09-21T14:24:34;23.40;95.30
18163;DHT22;9206;50.994;4.538;2022-09-21T14:27:29;23.30;95.30
18163;DHT22;9206;50.994;4.538;2022-09-21T14:30:21;23.10;95.30
18163;DHT22;9206;50.994;4.538;2022-09-21T14:33:24;23.10;95.90
18163;DHT22;9206;50.994;4.538;2022-09-21T14:36:19;23.30;96.00
18163;DHT22;9206;50.994;4.538;2022-09-21T14:39:16;23.10;93.10
18163;DHT22;9206;50.994;4.538;2022-09-21T14:42:08;22.40;92.40
18163;DHT22;9206;50.994;4.538;2022-09-21T14:45:04;21.90;93.20
18163;DHT22;9206;50.994;4.538;2022-09-21T14:48:05;21.30;93.00
18163;DHT22;9206;50.994;4.538;2022-09-21T14:51:00;20.80;93.50
18163;DHT22;9206;50.994;4.538;2022-09-21T14:54:12;20.60;93.90
18163;DHT22;9206;50.994;4.538;2022-09-21T15:05:17;19.90;95.40
18163;DHT22;9206;50.994;4.538;2022-09-21T15:08:43;19.70;96.00
18163;DHT22;9206;50.994;4.538;2022-09-21T15:12:07;19.70;98.20
18163;DHT22;9206;50.994;4.538;2022-09-21T15:15:34;19.60;97.90
18163;DHT22;9206;50.994;4.538;2022-09-21T15:33:13;19.40;99.90
18163;DHT22;9206;50.994;4.538;2022-09-21T15:36:42;19.40;99.90
18163;DHT22;9206;50.994;4.538;2022-09-21T15:39:35;19.30;99.90
18163;DHT22;9206;50.994;4.538;2022-09-21T15:43:16;19.30;99.90
18163;DHT22;9206;50.994;4.538;2022-09-21T15:46:03;19.10;99.90
18163;DHT22;9206;50.994;4.538;2022-09-21T15:48:56;18.80;99.90
18163;DHT22;9206;50.994;4.538;2022-09-21T15:51:53;18.60;99.90
18163;DHT22;9206;50.994;4.538;2022-09-21T15:54:56;18.50;99.90
18163;DHT22;9206;50.994;4.538;2022-09-21T15:57:49;18.40;99.90
18163;DHT22;9206;50.994;4.538;2022-09-21T16:01:12;18.30;99.90
18163;DHT22;9206;50.994;4.538;2022-09-21T16:04:57;18.30;99.90
18163;DHT22;9206;50.994;4.538;2022-09-21T16:27:38;19.10;99.90
18163;DHT22;9206;50.994;4.538;2022-09-21T16:38:33;19.40;99.90
18163;DHT22;9206;50.994;4.538;2022-09-21T16:41:21;19.30;99.90
18163;DHT22;9206;50.994;4.538;2022-09-21T16:44:16;19.20;99.90
18163;DHT22;9206;50.994;4.538;2022-09-21T16:51:41;18.90;99.90
18163;DHT22;9206;50.994;4.538;2022-09-21T17:01:21;18.30;99.90
18163;DHT22;9206;50.994;4.538;2022-09-21T17:04:47;18.00;99.90
18163;DHT22;9206;50.994;4.538;2022-09-21T17:11:27;17.60;99.90
18163;DHT22;9206;50.994;4.538;2022-09-21T17:18:36;17.10;99.90
18163;DHT22;9206;50.994;4.538;2022-09-21T17:22:11;16.80;99.90
18163;DHT22;9206;50.994;4.538;2022-09-21T17:25:17;16.60;99.90
18163;DHT22;9206;50.994;4.538;2022-09-21T17:28:19;16.40;99.90
18163;DHT22;9206;50.994;4.538;2022-09-21T17:31:14;16.10;99.90
18163;DHT22;9206;50.994;4.538;2022-09-21T17:34:16;15.90;99.90
18163;DHT22;9206;50.994;4.538;2022-09-21T17:41:23;15.60;99.90
18163;DHT22;9206;50.994;4.538;2022-09-21T17:48:25;15.20;99.90
18163;DHT22;9206;50.994;4.538;2022-09-21T18:02:31;14.50;99.90
18163;DHT22;9206;50.994;4.538;2022-09-21T18:05:23;14.40;99.90
18163;DHT22;9206;50.994;4.538;2022-09-21T18:08:11;14.20;99.90
18163;DHT22;9206;50.994;4.538;2022-09-21T18:11:36;14.10;99.90
18163;DHT22;9206;50.994;4.538;2022-09-21T18:14:42;14.00;99.90
18163;DHT22;9206;50.994;4.538;2022-09-21T18:17:46;13.90;99.90
18163;DHT22;9206;50.994;4.538;2022-09-21T18:20:44;13.80;99.90
18163;DHT22;9206;50.994;4.538;2022-09-21T18:23:40;13.70;99.90
18163;DHT22;9206;50.994;4.538;2022-09-21T18:26:28;13.50;99.90
18163;DHT22;9206;50.994;4.538;2022-09-21T18:29:25;13.50;99.90
18163;DHT22;9206;50.994;4.538;2022-09-21T18:32:38;13.30;99.90
18163;DHT22;9206;50.994;4.538;2022-09-21T18:35:59;13.30;99.90
18163;DHT22;9206;50.994;4.538;2022-09-21T18:38:59;13.10;99.90
18163;DHT22;9206;50.994;4.538;2022-09-21T18:42:04;13.00;99.90
18163;DHT22;9206;50.994;4.538;2022-09-21T18:45:01;13.00;99.90
18163;DHT22;9206;50.994;4.538;2022-09-21T18:48:13;12.90;99.90
18163;DHT22;9206;50.994;4.538;2022-09-21T18:51:15;12.80;99.90
18163;DHT22;9206;50.994;4.538;2022-09-21T18:54:06;12.70;99.90
18163;DHT22;9206;50.994;4.538;2022-09-21T18:57:11;12.60;99.90
18163;DHT22;9206;50.994;4.538;2022-09-21T19:00:01;12.50;99.90
18163;DHT22;9206;50.994;4.538;2022-09-21T19:02:55;12.50;99.90
18163;DHT22;9206;50.994;4.538;2022-09-21T19:06:09;12.40;99.90
18163;DHT22;9206;50.994;4.538;2022-09-21T19:09:16;12.30;99.90
18163;DHT22;9206;50.994;4.538;2022-09-21T19:12:17;12.20;99.90
18163;DHT22;9206;50.994;4.538;2022-09-21T19:15:13;12.20;99.90
18163;DHT22;9206;50.994;4.538;2022-09-21T19:18:15;12.10;99.90
18163;DHT22;9206;50.994;4.538;2022-09-21T19:21:13;12.10;99.90
18163;DHT22;9206;50.994;4.538;2022-09-21T19:24:12;12.00;99.90
18163;DHT22;9206;50.994;4.538;2022-09-21T19:27:10;11.90;99.90
18163;DHT22;9206;50.994;4.538;2022-09-21T19:30:08;11.80;99.90
18163;DHT22;9206;50.994;4.538;2022-09-21T19:32:57;11.70;99.90
18163;DHT22;9206;50.994;4.538;2022-09-21T19:35:46;11.70;99.90
18163;DHT22;9206;50.994;4.538;2022-09-21T19:38:41;11.60;99.90
18163;DHT22;9206;50.994;4.538;2022-09-21T19:41:52;11.60;99.90
18163;DHT22;9206;50.994;4.538;2022-09-21T19:44:58;11.60;99.90
18163;DHT22;9206;50.994;4.538;2022-09-21T19:47:59;11.50;99.90
18163;DHT22;9206;50.994;4.538;2022-09-21T19:50:52;11.40;99.90
18163;DHT22;9206;50.994;4.538;2022-09-21T19:53:42;11.30;99.90
18163;DHT22;9206;50.994;4.538;2022-09-21T19:56:54;11.30;99.90
18163;DHT22;9206;50.994;4.538;2022-09-21T19:59:56;11.30;99.90
18163;DHT22;9206;50.994;4.538;2022-09-21T20:02:52;11.20;99.90
18163;DHT22;9206;50.994;4.538;2022-09-21T20:05:49;11.20;99.90
18163;DHT22;9206;50.994;4.538;2022-09-21T20:08:46;11.20;99.90
18163;DHT22;9206;50.994;4.538;2022-09-21T20:11:42;11.10;99.90
18163;DHT22;9206;50.994;4.538;2022-09-21T20:14:42;11.00;99.90
18163;DHT22;9206;50.994;4.538;2022-09-21T20:17:37;11.00;99.90
18163;DHT22;9206;50.994;4.538;2022-09-21T20:20:33;10.90;99.90
18163;DHT22;9206;50.994;4.538;2022-09-21T20:23:30;10.80;99.90
18163;DHT22;9206;50.994;4.538;2022-09-21T20:26:24;10.80;99.90
18163;DHT22;9206;50.994;4.538;2022-09-21T20:29:19;10.80;99.90
18163;DHT22;9206;50.994;4.538;2022-09-21T20:32:14;10.70;99.90
18163;DHT22;9206;50.994;4.538;2022-09-21T20:35:09;10.60;99.90
18163;DHT22;9206;50.994;4.538;2022-09-21T20:38:05;10.60;99.90
18163;DHT22;9206;50.994;4.538;2022-09-21T20:41:00;10.50;99.90
18163;DHT22;9206;50.994;4.538;2022-09-21T20:43:55;10.50;99.90
18163;DHT22;9206;50.994;4.538;2022-09-21T20:46:46;10.50;99.90
18163;DHT22;9206;50.994;4.538;2022-09-21T20:49:37;10.40;99.90
18163;DHT22;9206;50.994;4.538;2022-09-21T20:52:25;10.40;99.90
18163;DHT22;9206;50.994;4.538;2022-09-21T20:55:14;10.30;99.90
18163;DHT22;9206;50.994;4.538;2022-09-21T20:58:02;10.20;99.90
18163;DHT22;9206;50.994;4.538;2022-09-21T21:00:49;10.20;99.90
18163;DHT22;9206;50.994;4.538;2022-09-21T21:03:43;10.20;99.90
18163;DHT22;9206;50.994;4.538;2022-09-21T21:06:37;10.10;99.90
18163;DHT22;9206;50.994;4.538;2022-09-21T21:09:26;10.00;99.90
18163;DHT22;9206;50.994;4.538;2022-09-21T21:12:14;10.00;99.90
18163;DHT22;9206;50.994;4.538;2022-09-21T21:15:05;10.00;99.90
18163;DHT22;9206;50.994;4.538;2022-09-21T21:17:53;9.90;99.90
18163;DHT22;9206;50.994;4.538;2022-09-21T21:20:41;9.80;99.90
18163;DHT22;9206;50.994;4.538;2022-09-21T21:23:51;9.80;99.90
18163;DHT22;9206;50.994;4.538;2022-09-21T21:26:59;9.70;99.90
18163;DHT22;9206;50.994;4.538;2022-09-21T21:29:51;9.70;99.90
18163;DHT22;9206;50.994;4.538;2022-09-21T21:32:42;9.60;99.90
18163;DHT22;9206;50.994;4.538;2022-09-21T21:35:37;9.50;99.90
18163;DHT22;9206;50.994;4.538;2022-09-21T21:38:26;9.50;99.90
18163;DHT22;9206;50.994;4.538;2022-09-21T21:41:18;9.40;99.90
18163;DHT22;9206;50.994;4.538;2022-09-21T21:44:05;9.40;99.90
18163;DHT22;9206;50.994;4.538;2022-09-21T21:46:53;9.40;99.90
18163;DHT22;9206;50.994;4.538;2022-09-21T21:49:45;9.30;99.90
18163;DHT22;9206;50.994;4.538;2022-09-21T21:52:33;9.30;99.90
18163;DHT22;9206;50.994;4.538;2022-09-21T21:55:23;9.20;99.90
18163;DHT22;9206;50.994;4.538;2022-09-21T21:58:12;9.20;99.90
18163;DHT22;9206;50.994;4.538;2022-09-21T22:01:10;9.10;99.90
18163;DHT22;9206;50.994;4.538;2022-09-21T22:04:01;9.10;99.90
18163;DHT22;9206;50.994;4.538;2022-09-21T22:06:56;9.00;99.90
18163;DHT22;9206;50.994;4.538;2022-09-21T22:09:47;9.00;99.90
18163;DHT22;9206;50.994;4.538;2022-09-21T22:12:36;9.00;99.90
18163;DHT22;9206;50.994;4.538;2022-09-21T22:15:26;8.90;99.90
18163;DHT22;9206;50.994;4.538;2022-09-21T22:18:16;8.90;99.90
18163;DHT22;9206;50.994;4.538;2022-09-21T22:21:05;8.80;99.90
18163;DHT22;9206;50.994;4.538;2022-09-21T22:24:02;8.80;99.90
18163;DHT22;9206;50.994;4.538;2022-09-21T22:26:51;8.70;99.90
18163;DHT22;9206;50.994;4.538;2022-09-21T22:29:40;8.70;99.90
18163;DHT22;9206;50.994;4.538;2022-09-21T22:32:28;8.60;99.90
18163;DHT22;9206;50.994;4.538;2022-09-21T22:35:16;8.60;99.90
18163;DHT22;9206;50.994;4.538;2022-09-21T22:38:05;8.60;99.90
18163;DHT22;9206;50.994;4.538;2022-09-21T22:41:01;8.50;99.90
18163;DHT22;9206;50.994;4.538;2022-09-21T22:43:56;8.50;99.90
18163;DHT22;9206;50.994;4.538;2022-09-21T22:46:50;8.50;99.90
18163;DHT22;9206;50.994;4.538;2022-09-21T22:49:42;8.50;99.90
18163;DHT22;9206;50.994;4.538;2022-09-21T22:52:29;8.40;99.90
18163;DHT22;9206;50.994;4.538;2022-09-21T22:55:20;8.40;99.90
18163;DHT22;9206;50.994;4.538;2022-09-21T22:58:14;8.30;99.90
18163;DHT22;9206;50.994;4.538;2022-09-21T23:01:05;8.30;99.90
18163;DHT22;9206;50.994;4.538;2022-09-21T23:04:00;8.20;99.90
18163;DHT22;9206;50.994;4.538;2022-09-21T23:06:52;8.20;99.90
18163;DHT22;9206;50.994;4.538;2022-09-21T23:09:40;8.20;99.90
18163;DHT22;9206;50.994;4.538;2022-09-21T23:12:29;8.10;99.90
18163;DHT22;9206;50.994;4.538;2022-09-21T23:15:19;8.10;99.90
18163;DHT22;9206;50.994;4.538;2022-09-21T23:18:06;8.00;99.90
18163;DHT22;9206;50.994;4.538;2022-09-21T23:21:07;8.00;99.90
18163;DHT22;9206;50.994;4.538;2022-09-21T23:24:03;8.00;99.90
18163;DHT22;9206;50.994;4.538;2022-09-21T23:26:50;7.90;99.90
18163;DHT22;9206;50.994;4.538;2022-09-21T23:29:39;7.90;99.90
18163;DHT22;9206;50.994;4.538;2022-09-21T23:32:29;7.90;99.90
18163;DHT22;9206;50.994;4.538;2022-09-21T23:35:22;7.90;99.90
18163;DHT22;9206;50.994;4.538;2022-09-21T23:38:12;7.80;99.90
18163;DHT22;9206;50.994;4.538;2022-09-21T23:41:06;7.80;99.90
18163;DHT22;9206;50.994;4.538;2022-09-21T23:43:55;7.70;99.90
18163;DHT22;9206;50.994;4.538;2022-09-21T23:46:43;7.60;99.90
18163;DHT22;9206;50.994;4.538;2022-09-21T23:49:32;7.60;99.90
18163;DHT22;9206;50.994;4.538;2022-09-21T23:52:23;7.50;99.90
18163;DHT22;9206;50.994;4.538;2022-09-21T23:55:19;7.50;99.90
18163;DHT22;9206;50.994;4.538;2022-09-21T23:58:13;7.50;99.90
